Rechercher aéroport 
image banner adimage banner adimage banner ad
image banner ad

CN37 - Kelso Valley

Situé à Mojave, United States

ICAO - CN37, IATA -

Données fournies par Airmate  

Information générale

Coordonnées: N35°23'1" W118°13'13"
Élévation : 4074 feet MSL.
Variation magnétique : 14° East
Voir autres Aéroports à California

Données opérationnelles

Special qualification required
Heure actuelle UTC:
Heure actuelle locale:
Météo à : KTSP - Tehachapi Muni ( 34 km )
METAR: KTSP 291415Z AUTO 00000KT 10SM CLR 20/08 A3016 RMK AO2
Voir NOTAMs / SUP AIP / TFR affectant cet aéroport [VIEW]
Fréquences de communication: [VIEW]

Pistes:

Identifiant RWYQFULongueur (ft)Largeur (ft)SurfaceLDA (ft)
082673100EARTH
262673100EARTH
163436100EARTH
343436100EARTH

Coordonnées de l'aéroport

Adresse: Mojave United States

Vue satellite de CN37